sensor_id;sensor_type;location;lat;lon;timestamp;pressure;altitude;pressure_sealevel;temperature;humidity
55044;BME280;54902;50.420;18.854;2023-04-29T00:00:02;101121.01;;;10.61;50.64
55044;BME280;54902;50.420;18.854;2023-04-29T00:00:36;101113.57;;;10.63;50.64
55044;BME280;54902;50.420;18.854;2023-04-29T00:01:07;101115.33;;;10.64;50.65
55044;BME280;54902;50.420;18.854;2023-04-29T00:01:38;101116.30;;;10.63;50.64
55044;BME280;54902;50.420;18.854;2023-04-29T00:02:09;101110.71;;;10.64;50.65
55044;BME280;54902;50.420;18.854;2023-04-29T00:02:40;101117.93;;;10.65;50.65
55044;BME280;54902;50.420;18.854;2023-04-29T00:03:11;101111.56;;;10.65;50.63
55044;BME280;54902;50.420;18.854;2023-04-29T00:03:42;101108.75;;;10.66;50.61
55044;BME280;54902;50.420;18.854;2023-04-29T00:04:14;101106.02;;;10.66;50.61
55044;BME280;54902;50.420;18.854;2023-04-29T00:04:45;101107.85;;;10.66;50.60
55044;BME280;54902;50.420;18.854;2023-04-29T00:05:16;101108.75;;;10.66;50.60
55044;BME280;54902;50.420;18.854;2023-04-29T00:05:47;101103.16;;;10.68;50.60
55044;BME280;54902;50.420;18.854;2023-04-29T00:06:18;101105.00;;;10.67;50.57
55044;BME280;54902;50.420;18.854;2023-04-29T00:06:49;101100.42;;;10.68;50.58
55044;BME280;54902;50.420;18.854;2023-04-29T00:07:20;101103.16;;;10.68;50.58
55044;BME280;54902;50.420;18.854;2023-04-29T00:07:51;101107.63;;;10.69;50.57
55044;BME280;54902;50.420;18.854;2023-04-29T00:08:23;101102.17;;;10.69;50.57
55044;BME280;54902;50.420;18.854;2023-04-29T00:08:54;101104.77;;;10.70;50.58
55044;BME280;54902;50.420;18.854;2023-04-29T00:09:25;101101.16;;;10.70;50.57
55044;BME280;54902;50.420;18.854;2023-04-29T00:09:56;101083.77;;;10.60;50.56
55044;BME280;54902;50.420;18.854;2023-04-29T00:10:27;101105.63;;;10.71;50.57
55044;BME280;54902;50.420;18.854;2023-04-29T00:10:58;101097.44;;;10.71;50.56
55044;BME280;54902;50.420;18.854;2023-04-29T00:11:29;101104.65;;;10.72;50.55
55044;BME280;54902;50.420;18.854;2023-04-29T00:12:00;101099.19;;;10.72;50.52
55044;BME280;54902;50.420;18.854;2023-04-29T00:12:32;101097.31;;;10.72;50.56
55044;BME280;54902;50.420;18.854;2023-04-29T00:13:03;101093.73;;;10.72;50.54
55044;BME280;54902;50.420;18.854;2023-04-29T00:13:34;101096.45;;;10.72;50.51
55044;BME280;54902;50.420;18.854;2023-04-29T00:14:05;101099.06;;;10.73;50.53
55044;BME280;54902;50.420;18.854;2023-04-29T00:14:36;101098.21;;;10.73;50.52
55044;BME280;54902;50.420;18.854;2023-04-29T00:15:07;101095.34;;;10.74;50.53
55044;BME280;54902;50.420;18.854;2023-04-29T00:15:40;101099.92;;;10.74;50.52
55044;BME280;54902;50.420;18.854;2023-04-29T00:16:11;101090.74;;;10.75;50.51
55044;BME280;54902;50.420;18.854;2023-04-29T00:16:43;101096.20;;;10.75;50.52
55044;BME280;54902;50.420;18.854;2023-04-29T00:17:14;101095.34;;;10.74;50.50
55044;BME280;54902;50.420;18.854;2023-04-29T00:17:46;101094.32;;;10.75;50.50
55044;BME280;54902;50.420;18.854;2023-04-29T00:18:17;101093.47;;;10.75;50.50
55044;BME280;54902;50.420;18.854;2023-04-29T00:18:48;101096.20;;;10.75;50.49
55044;BME280;54902;50.420;18.854;2023-04-29T00:19:19;101093.34;;;10.76;50.49
55044;BME280;54902;50.420;18.854;2023-04-29T00:19:50;101092.48;;;10.76;50.50
55044;BME280;54902;50.420;18.854;2023-04-29T00:20:21;101098.80;;;10.76;50.47
55044;BME280;54902;50.420;18.854;2023-04-29T00:20:52;101097.95;;;10.76;50.48
55044;BME280;54902;50.420;18.854;2023-04-29T00:21:23;101075.83;;;10.68;50.46
55044;BME280;54902;50.420;18.854;2023-04-29T00:21:56;101094.23;;;10.77;50.47
55044;BME280;54902;50.420;18.854;2023-04-29T00:22:27;101092.36;;;10.77;50.47
55044;BME280;54902;50.420;18.854;2023-04-29T00:22:59;101088.77;;;10.77;50.48
55044;BME280;54902;50.420;18.854;2023-04-29T00:23:31;101093.22;;;10.78;50.46
55044;BME280;54902;50.420;18.854;2023-04-29T00:24:02;101095.95;;;10.78;50.45
55044;BME280;54902;50.420;18.854;2023-04-29T00:24:33;101090.48;;;10.78;50.45
55044;BME280;54902;50.420;18.854;2023-04-29T00:25:05;101096.84;;;10.78;50.45
55044;BME280;54902;50.420;18.854;2023-04-29T00:25:36;101089.63;;;10.77;50.46
55044;BME280;54902;50.420;18.854;2023-04-29T00:26:08;101089.63;;;10.77;50.48
55044;BME280;54902;50.420;18.854;2023-04-29T00:26:39;101094.96;;;10.79;50.46
55044;BME280;54902;50.420;18.854;2023-04-29T00:27:10;101097.70;;;10.79;50.44
55044;BME280;54902;50.420;18.854;2023-04-29T00:27:41;101081.43;;;10.77;50.46
55044;BME280;54902;50.420;18.854;2023-04-29T00:28:12;101080.45;;;10.78;50.43
55044;BME280;54902;50.420;18.854;2023-04-29T00:28:43;101082.29;;;10.78;50.43
55044;BME280;54902;50.420;18.854;2023-04-29T00:29:14;101083.17;;;10.78;50.44
55044;BME280;54902;50.420;18.854;2023-04-29T00:29:45;101081.30;;;10.79;50.43
55044;BME280;54902;50.420;18.854;2023-04-29T00:30:16;101085.91;;;10.78;50.44
55044;BME280;54902;50.420;18.854;2023-04-29T00:30:47;101087.66;;;10.79;50.43
55044;BME280;54902;50.420;18.854;2023-04-29T00:31:18;101084.02;;;10.79;50.43
55044;BME280;54902;50.420;18.854;2023-04-29T00:31:49;101074.98;;;10.78;50.42
55044;BME280;54902;50.420;18.854;2023-04-29T00:32:20;101078.69;;;10.77;50.42
55044;BME280;54902;50.420;18.854;2023-04-29T00:32:53;101085.91;;;10.78;50.42
55044;BME280;54902;50.420;18.854;2023-04-29T00:33:24;101071.35;;;10.78;50.41
55044;BME280;54902;50.420;18.854;2023-04-29T00:33:56;101085.01;;;10.78;50.42
55044;BME280;54902;50.420;18.854;2023-04-29T00:34:27;101089.63;;;10.77;50.42
55044;BME280;54902;50.420;18.854;2023-04-29T00:34:59;101082.41;;;10.76;50.42
55044;BME280;54902;50.420;18.854;2023-04-29T00:35:31;101081.43;;;10.77;50.41
55044;BME280;54902;50.420;18.854;2023-04-29T00:36:02;101077.83;;;10.77;50.43
55044;BME280;54902;50.420;18.854;2023-04-29T00:36:33;101077.83;;;10.77;50.41
55044;BME280;54902;50.420;18.854;2023-04-29T00:37:05;101087.02;;;10.76;50.41
55044;BME280;54902;50.420;18.854;2023-04-29T00:37:36;101084.28;;;10.76;50.41
55044;BME280;54902;50.420;18.854;2023-04-29T00:38:07;101083.40;;;10.75;50.40
55044;BME280;54902;50.420;18.854;2023-04-29T00:38:38;101077.83;;;10.77;50.42
55044;BME280;54902;50.420;18.854;2023-04-29T00:39:09;101077.08;;;10.75;50.41
55044;BME280;54902;50.420;18.854;2023-04-29T00:39:40;101075.20;;;10.75;50.43
55044;BME280;54902;50.420;18.854;2023-04-29T00:40:11;101076.09;;;10.76;50.39
55044;BME280;54902;50.420;18.854;2023-04-29T00:40:47;101079.80;;;10.75;50.42
55044;BME280;54902;50.420;18.854;2023-04-29T00:41:18;101069.73;;;10.75;50.43
55044;BME280;54902;50.420;18.854;2023-04-29T00:41:49;101068.88;;;10.75;50.42
55044;BME280;54902;50.420;18.854;2023-04-29T00:42:20;101079.80;;;10.75;50.43
55044;BME280;54902;50.420;18.854;2023-04-29T00:42:52;101072.59;;;10.74;50.44
55044;BME280;54902;50.420;18.854;2023-04-29T00:43:23;101083.52;;;10.74;50.43
55044;BME280;54902;50.420;18.854;2023-04-29T00:43:54;101084.41;;;10.74;50.42
55044;BME280;54902;50.420;18.854;2023-04-29T00:44:25;101078.05;;;10.74;50.42
55044;BME280;54902;50.420;18.854;2023-04-29T00:44:56;101082.66;;;10.73;50.42
55044;BME280;54902;50.420;18.854;2023-04-29T00:45:27;101083.52;;;10.74;50.43
55044;BME280;54902;50.420;18.854;2023-04-29T00:45:58;101078.05;;;10.74;50.42
55044;BME280;54902;50.420;18.854;2023-04-29T00:46:29;101074.47;;;10.73;50.43
55044;BME280;54902;50.420;18.854;2023-04-29T00:47:00;101082.66;;;10.73;50.42
55044;BME280;54902;50.420;18.854;2023-04-29T00:47:31;101084.55;;;10.73;50.42
55044;BME280;54902;50.420;18.854;2023-04-29T00:48:02;101080.06;;;10.72;50.40
55044;BME280;54902;50.420;18.854;2023-04-29T00:48:33;101080.06;;;10.72;50.42
55044;BME280;54902;50.420;18.854;2023-04-29T00:49:04;101080.06;;;10.72;50.42
55044;BME280;54902;50.420;18.854;2023-04-29T00:49:37;101085.53;;;10.72;50.44
55044;BME280;54902;50.420;18.854;2023-04-29T00:50:09;101075.45;;;10.72;50.44
55044;BME280;54902;50.420;18.854;2023-04-29T00:50:40;101077.33;;;10.72;50.42
55044;BME280;54902;50.420;18.854;2023-04-29T00:51:12;101073.09;;;10.68;50.42
55044;BME280;54902;50.420;18.854;2023-04-29T00:51:44;101078.30;;;10.71;50.42
55044;BME280;54902;50.420;18.854;2023-04-29T00:52:16;101085.53;;;10.72;50.42
55044;BME280;54902;50.420;18.854;2023-04-29T00:52:48;101077.33;;;10.72;50.42
55044;BME280;54902;50.420;18.854;2023-04-29T00:53:19;101078.30;;;10.71;50.42
55044;BME280;54902;50.420;18.854;2023-04-29T00:53:52;101083.77;;;10.71;50.44
55044;BME280;54902;50.420;18.854;2023-04-29T00:54:24;101078.30;;;10.71;50.44
55044;BME280;54902;50.420;18.854;2023-04-29T00:54:55;101078.30;;;10.71;50.44
55044;BME280;54902;50.420;18.854;2023-04-29T00:55:27;101084.63;;;10.71;50.44
55044;BME280;54902;50.420;18.854;2023-04-29T00:55:59;101080.06;;;10.72;50.45
55044;BME280;54902;50.420;18.854;2023-04-29T00:56:34;101078.30;;;10.71;50.45
55044;BME280;54902;50.420;18.854;2023-04-29T00:57:05;101080.06;;;10.72;50.45
55044;BME280;54902;50.420;18.854;2023-04-29T00:57:37;101079.17;;;10.71;50.47
55044;BME280;54902;50.420;18.854;2023-04-29T00:58:09;101078.30;;;10.71;50.46
55044;BME280;54902;50.420;18.854;2023-04-29T00:58:42;101076.43;;;10.71;50.47
55044;BME280;54902;50.420;18.854;2023-04-29T00:59:22;101077.33;;;10.72;50.47
55044;BME280;54902;50.420;18.854;2023-04-29T00:59:59;101080.91;;;10.72;50.48
55044;BME280;54902;50.420;18.854;2023-04-29T01:00:30;101080.91;;;10.72;50.49
55044;BME280;54902;50.420;18.854;2023-04-29T01:01:02;101079.08;;;10.73;50.48
55044;BME280;54902;50.420;18.854;2023-04-29T01:01:35;101087.27;;;10.73;50.47
55044;BME280;54902;50.420;18.854;2023-04-29T01:02:06;101078.05;;;10.74;50.50
55044;BME280;54902;50.420;18.854;2023-04-29T01:02:37;101080.79;;;10.74;50.46
55044;BME280;54902;50.420;18.854;2023-04-29T01:03:08;101087.27;;;10.73;50.47
55044;BME280;54902;50.420;18.854;2023-04-29T01:03:40;101079.08;;;10.73;50.45
55044;BME280;54902;50.420;18.854;2023-04-29T01:04:12;101079.08;;;10.73;50.46
55044;BME280;54902;50.420;18.854;2023-04-29T01:04:43;101082.66;;;10.73;50.47
55044;BME280;54902;50.420;18.854;2023-04-29T01:05:14;101084.55;;;10.73;50.46
55044;BME280;54902;50.420;18.854;2023-04-29T01:05:48;101078.05;;;10.74;50.47
55044;BME280;54902;50.420;18.854;2023-04-29T01:07:58;101068.63;;;10.67;50.44
55044;BME280;54902;50.420;18.854;2023-04-29T01:08:43;101083.52;;;10.74;50.45
55044;BME280;54902;50.420;18.854;2023-04-29T01:09:29;101088.99;;;10.74;50.46
55044;BME280;54902;50.420;18.854;2023-04-29T01:10:53;101078.95;;;10.74;50.46
55044;BME280;54902;50.420;18.854;2023-04-29T01:11:29;101077.93;;;10.75;50.45
55044;BME280;54902;50.420;18.854;2023-04-29T01:13:45;101085.27;;;10.75;50.46
55044;BME280;54902;50.420;18.854;2023-04-29T01:14:18;101085.27;;;10.75;50.47
55044;BME280;54902;50.420;18.854;2023-04-29T01:15:53;101084.28;;;10.76;50.46
55044;BME280;54902;50.420;18.854;2023-04-29T01:16:29;101080.66;;;10.75;50.46
55044;BME280;54902;50.420;18.854;2023-04-29T01:17:14;101077.93;;;10.75;50.45
55044;BME280;54902;50.420;18.854;2023-04-29T01:18:03;101081.55;;;10.76;50.48
55044;BME280;54902;50.420;18.854;2023-04-29T01:18:36;101081.55;;;10.76;50.47
55044;BME280;54902;50.420;18.854;2023-04-29T01:19:21;101091.50;;;10.77;50.48
55044;BME280;54902;50.420;18.854;2023-04-29T01:19:54;101083.30;;;10.77;50.48
55044;BME280;54902;50.420;18.854;2023-04-29T01:20:27;101078.81;;;10.76;50.46
55044;BME280;54902;50.420;18.854;2023-04-29T01:20:59;101075.10;;;10.77;50.48
55044;BME280;54902;50.420;18.854;2023-04-29T01:21:31;101087.74;;;10.78;50.47
55044;BME280;54902;50.420;18.854;2023-04-29T01:22:02;101083.30;;;10.77;50.50
55044;BME280;54902;50.420;18.854;2023-04-29T01:22:33;101074.09;;;10.78;50.50
55044;BME280;54902;50.420;18.854;2023-04-29T01:23:04;101083.17;;;10.78;50.50
55044;BME280;54902;50.420;18.854;2023-04-29T01:23:35;101079.55;;;10.78;50.50
55044;BME280;54902;50.420;18.854;2023-04-29T01:24:05;101087.74;;;10.78;50.50
55044;BME280;54902;50.420;18.854;2023-04-29T01:24:38;101081.30;;;10.79;50.51
55044;BME280;54902;50.420;18.854;2023-04-29T01:25:09;101084.02;;;10.79;50.51
55044;BME280;54902;50.420;18.854;2023-04-29T01:25:40;101074.98;;;10.78;50.51
55044;BME280;54902;50.420;18.854;2023-04-29T01:26:11;101076.72;;;10.79;50.53
55044;BME280;54902;50.420;18.854;2023-04-29T01:26:53;101076.82;;;10.78;50.50
55044;BME280;54902;50.420;18.854;2023-04-29T01:27:30;101083.05;;;10.80;50.52
55044;BME280;54902;50.420;18.854;2023-04-29T01:29:03;101078.55;;;10.79;50.51
55044;BME280;54902;50.420;18.854;2023-04-29T01:31:07;101079.34;;;10.81;50.52
55044;BME280;54902;50.420;18.854;2023-04-29T01:31:48;101085.66;;;10.81;50.53
55044;BME280;54902;50.420;18.854;2023-04-29T01:34:58;101081.04;;;10.82;50.56
55044;BME280;54902;50.420;18.854;2023-04-29T01:36:55;101071.86;;;10.83;50.55
55044;BME280;54902;50.420;18.854;2023-04-29T01:39:08;101079.08;;;10.84;50.54
55044;BME280;54902;50.420;18.854;2023-04-29T01:39:55;101070.02;;;10.83;50.54
55044;BME280;54902;50.420;18.854;2023-04-29T01:40:40;101070.88;;;10.84;50.53
55044;BME280;54902;50.420;18.854;2023-04-29T01:41:14;101062.43;;;10.76;50.54
55044;BME280;54902;50.420;18.854;2023-04-29T01:41:56;101078.09;;;10.85;50.57
55044;BME280;54902;50.420;18.854;2023-04-29T01:42:39;101072.62;;;10.85;50.59
55044;BME280;54902;50.420;18.854;2023-04-29T01:43:15;101064.43;;;10.85;50.59
55044;BME280;54902;50.420;18.854;2023-04-29T01:43:50;101078.95;;;10.85;50.59
55044;BME280;54902;50.420;18.854;2023-04-29T01:44:23;101076.21;;;10.85;50.59
55044;BME280;54902;50.420;18.854;2023-04-29T01:44:59;101066.14;;;10.86;50.58
55044;BME280;54902;50.420;18.854;2023-04-29T01:45:32;101068.01;;;10.85;50.56
55044;BME280;54902;50.420;18.854;2023-04-29T01:46:08;101067.03;;;10.86;50.57
55044;BME280;54902;50.420;18.854;2023-04-29T01:46:43;101076.09;;;10.87;50.60
55044;BME280;54902;50.420;18.854;2023-04-29T01:47:19;101067.03;;;10.86;50.59
55044;BME280;54902;50.420;18.854;2023-04-29T01:47:52;101070.63;;;10.87;50.58
55044;BME280;54902;50.420;18.854;2023-04-29T01:48:27;101066.14;;;10.86;50.59
55044;BME280;54902;50.420;18.854;2023-04-29T01:48:57;101067.03;;;10.86;50.58
55044;BME280;54902;50.420;18.854;2023-04-29T01:49:29;101069.63;;;10.88;50.59
55044;BME280;54902;50.420;18.854;2023-04-29T01:50:01;101063.41;;;10.86;50.58
55044;BME280;54902;50.420;18.854;2023-04-29T01:50:33;101067.03;;;10.86;50.58
55044;BME280;54902;50.420;18.854;2023-04-29T01:51:04;101057.94;;;10.86;50.57
55044;BME280;54902;50.420;18.854;2023-04-29T01:51:36;101060.67;;;10.86;50.59
55044;BME280;54902;50.420;18.854;2023-04-29T01:52:07;101061.56;;;10.86;50.57
55044;BME280;54902;50.420;18.854;2023-04-29T01:52:38;101060.58;;;10.87;50.56
55044;BME280;54902;50.420;18.854;2023-04-29T01:53:09;101052.47;;;10.86;50.57
55044;BME280;54902;50.420;18.854;2023-04-29T01:53:40;101056.96;;;10.87;50.57
55044;BME280;54902;50.420;18.854;2023-04-29T01:54:12;101055.20;;;10.86;50.57
55044;BME280;54902;50.420;18.854;2023-04-29T01:54:43;101057.94;;;10.86;50.57
55044;BME280;54902;50.420;18.854;2023-04-29T01:55:15;101054.34;;;10.85;50.56
55044;BME280;54902;50.420;18.854;2023-04-29T01:55:47;101057.94;;;10.86;50.58
55044;BME280;54902;50.420;18.854;2023-04-29T01:56:18;101056.22;;;10.85;50.58
55044;BME280;54902;50.420;18.854;2023-04-29T01:56:49;101056.22;;;10.85;50.59
55044;BME280;54902;50.420;18.854;2023-04-29T01:57:21;101053.48;;;10.85;50.61
55044;BME280;54902;50.420;18.854;2023-04-29T01:57:52;101038.81;;;10.75;50.60
55044;BME280;54902;50.420;18.854;2023-04-29T01:58:23;101043.68;;;10.82;50.58
55044;BME280;54902;50.420;18.854;2023-04-29T01:58:54;101056.35;;;10.83;50.60
55044;BME280;54902;50.420;18.854;2023-04-29T01:59:26;101055.45;;;10.83;50.58
55044;BME280;54902;50.420;18.854;2023-04-29T01:59:56;101053.71;;;10.82;50.57
55044;BME280;54902;50.420;18.854;2023-04-29T02:00:27;101053.71;;;10.82;50.61
55044;BME280;54902;50.420;18.854;2023-04-29T02:00:58;101053.71;;;10.82;50.60
55044;BME280;54902;50.420;18.854;2023-04-29T02:01:29;101056.45;;;10.82;50.59
55044;BME280;54902;50.420;18.854;2023-04-29T02:02:01;101055.59;;;10.81;50.60
55044;BME280;54902;50.420;18.854;2023-04-29T02:02:32;101054.73;;;10.81;50.63
55044;BME280;54902;50.420;18.854;2023-04-29T02:03:03;101058.32;;;10.81;50.58
55044;BME280;54902;50.420;18.854;2023-04-29T02:03:34;101056.57;;;10.80;50.61
55044;BME280;54902;50.420;18.854;2023-04-29T02:04:05;101056.57;;;10.80;50.60
55044;BME280;54902;50.420;18.854;2023-04-29T02:04:37;101065.66;;;10.81;50.60
55044;BME280;54902;50.420;18.854;2023-04-29T02:05:08;101057.47;;;10.81;50.63
55044;BME280;54902;50.420;18.854;2023-04-29T02:05:39;101056.57;;;10.80;50.62
55044;BME280;54902;50.420;18.854;2023-04-29T02:06:10;101067.51;;;10.80;50.60
55044;BME280;54902;50.420;18.854;2023-04-29T02:06:41;101066.65;;;10.80;50.62
55044;BME280;54902;50.420;18.854;2023-04-29T02:07:12;101050.25;;;10.80;50.64
55044;BME280;54902;50.420;18.854;2023-04-29T02:07:43;101066.65;;;10.80;50.62
55044;BME280;54902;50.420;18.854;2023-04-29T02:08:14;101065.66;;;10.81;50.63
55044;BME280;54902;50.420;18.854;2023-04-29T02:08:45;101067.51;;;10.80;50.66
55044;BME280;54902;50.420;18.854;2023-04-29T02:09:16;101063.91;;;10.80;50.65
55044;BME280;54902;50.420;18.854;2023-04-29T02:09:47;101055.71;;;10.80;50.65
55044;BME280;54902;50.420;18.854;2023-04-29T02:10:18;101065.80;;;10.79;50.63
55044;BME280;54902;50.420;18.854;2023-04-29T02:10:55;101063.91;;;10.80;50.65
55044;BME280;54902;50.420;18.854;2023-04-29T02:11:26;101060.20;;;10.81;50.65
55044;BME280;54902;50.420;18.854;2023-04-29T02:11:57;101056.57;;;10.80;50.64
55044;BME280;54902;50.420;18.854;2023-04-29T02:12:28;101056.57;;;10.80;50.66
55044;BME280;54902;50.420;18.854;2023-04-29T02:12:59;101056.57;;;10.80;50.66
55044;BME280;54902;50.420;18.854;2023-04-29T02:13:30;101068.40;;;10.81;50.67
55044;BME280;54902;50.420;18.854;2023-04-29T02:14:01;101054.73;;;10.81;50.67
55044;BME280;54902;50.420;18.854;2023-04-29T02:14:32;101055.71;;;10.80;50.67
55044;BME280;54902;50.420;18.854;2023-04-29T02:15:04;101050.25;;;10.80;50.67
55044;BME280;54902;50.420;18.854;2023-04-29T02:15:36;101051.10;;;10.80;50.68
55044;BME280;54902;50.420;18.854;2023-04-29T02:16:08;101056.57;;;10.80;50.67
55044;BME280;54902;50.420;18.854;2023-04-29T02:16:39;101052.98;;;10.80;50.67
55044;BME280;54902;50.420;18.854;2023-04-29T02:17:10;101050.25;;;10.80;50.67
55044;BME280;54902;50.420;18.854;2023-04-29T02:17:41;101052.98;;;10.80;50.68
55044;BME280;54902;50.420;18.854;2023-04-29T02:18:11;101053.98;;;10.79;50.67
55044;BME280;54902;50.420;18.854;2023-04-29T02:18:42;101056.70;;;10.79;50.67
55044;BME280;54902;50.420;18.854;2023-04-29T02:19:13;101055.71;;;10.80;50.67
55044;BME280;54902;50.420;18.854;2023-04-29T02:19:44;101057.47;;;10.81;50.68
55044;BME280;54902;50.420;18.854;2023-04-29T02:20:15;101056.57;;;10.80;50.69
55044;BME280;54902;50.420;18.854;2023-04-29T02:20:47;101054.86;;;10.79;50.68
55044;BME280;54902;50.420;18.854;2023-04-29T02:21:20;101053.84;;;10.80;50.69
55044;BME280;54902;50.420;18.854;2023-04-29T02:21:51;101051.24;;;10.79;50.68
55044;BME280;54902;50.420;18.854;2023-04-29T02:22:22;101055.71;;;10.80;50.71
55044;BME280;54902;50.420;18.854;2023-04-29T02:22:53;101051.10;;;10.80;50.71
55044;BME280;54902;50.420;18.854;2023-04-29T02:23:24;101053.84;;;10.80;50.70
55044;BME280;54902;50.420;18.854;2023-04-29T02:23:55;101054.86;;;10.79;50.71
55044;BME280;54902;50.420;18.854;2023-04-29T02:24:26;101056.70;;;10.79;50.72
55044;BME280;54902;50.420;18.854;2023-04-29T02:24:57;101055.71;;;10.80;50.71
55044;BME280;54902;50.420;18.854;2023-04-29T02:25:28;101056.70;;;10.79;50.72
55044;BME280;54902;50.420;18.854;2023-04-29T02:25:59;101051.24;;;10.79;50.71
55044;BME280;54902;50.420;18.854;2023-04-29T02:26:31;101049.40;;;10.79;50.72
55044;BME280;54902;50.420;18.854;2023-04-29T02:27:03;101056.70;;;10.79;50.74
55044;BME280;54902;50.420;18.854;2023-04-29T02:27:37;101054.95;;;10.78;50.76
55044;BME280;54902;50.420;18.854;2023-04-29T02:28:08;101063.05;;;10.79;50.75
55044;BME280;54902;50.420;18.854;2023-04-29T02:28:39;101062.16;;;10.79;50.76
55044;BME280;54902;50.420;18.854;2023-04-29T02:29:10;101052.22;;;10.78;50.75
55044;BME280;54902;50.420;18.854;2023-04-29T02:29:41;101054.95;;;10.78;50.77
55044;BME280;54902;50.420;18.854;2023-04-29T02:30:12;101053.98;;;10.79;50.76
55044;BME280;54902;50.420;18.854;2023-04-29T02:30:43;101047.64;;;10.78;50.75
55044;BME280;54902;50.420;18.854;2023-04-29T02:31:14;101050.38;;;10.78;50.77
55044;BME280;54902;50.420;18.854;2023-04-29T02:31:45;101055.84;;;10.78;50.76
55044;BME280;54902;50.420;18.854;2023-04-29T02:32:16;101053.98;;;10.79;50.78
55044;BME280;54902;50.420;18.854;2023-04-29T02:32:50;101046.76;;;10.78;50.78
55044;BME280;54902;50.420;18.854;2023-04-29T02:33:22;101053.12;;;10.78;50.78
55044;BME280;54902;50.420;18.854;2023-04-29T02:33:53;101047.64;;;10.78;50.81
55044;BME280;54902;50.420;18.854;2023-04-29T02:34:25;101044.02;;;10.78;50.81
55044;BME280;54902;50.420;18.854;2023-04-29T02:34:56;101044.02;;;10.78;50.79
55044;BME280;54902;50.420;18.854;2023-04-29T02:35:27;101041.29;;;10.78;50.80
55044;BME280;54902;50.420;18.854;2023-04-29T02:35:59;101045.91;;;10.77;50.80
55044;BME280;54902;50.420;18.854;2023-04-29T02:36:30;101049.48;;;10.78;50.80
55044;BME280;54902;50.420;18.854;2023-04-29T02:37:01;101046.76;;;10.78;50.81
55044;BME280;54902;50.420;18.854;2023-04-29T02:37:33;101048.51;;;10.79;50.81
55044;BME280;54902;50.420;18.854;2023-04-29T02:38:03;101042.17;;;10.78;50.82
55044;BME280;54902;50.420;18.854;2023-04-29T02:38:34;101046.76;;;10.78;50.81
55044;BME280;54902;50.420;18.854;2023-04-29T02:39:05;101045.77;;;10.79;50.81
55044;BME280;54902;50.420;18.854;2023-04-29T02:39:36;101043.04;;;10.79;50.82
55044;BME280;54902;50.420;18.854;2023-04-29T02:40:08;101036.84;;;10.77;50.83
55044;BME280;54902;50.420;18.854;2023-04-29T02:40:43;101044.02;;;10.78;50.80
55044;BME280;54902;50.420;18.854;2023-04-29T02:41:17;101043.04;;;10.79;50.83
55044;BME280;54902;50.420;18.854;2023-04-29T02:41:48;101048.51;;;10.79;50.83
55044;BME280;54902;50.420;18.854;2023-04-29T02:42:19;101046.76;;;10.78;50.84
55044;BME280;54902;50.420;18.854;2023-04-29T02:42:50;101043.94;;;10.79;50.85
55044;BME280;54902;50.420;18.854;2023-04-29T02:43:21;101045.77;;;10.79;50.87
55044;BME280;54902;50.420;18.854;2023-04-29T02:43:52;101039.33;;;10.80;50.88
55044;BME280;54902;50.420;18.854;2023-04-29T02:44:23;101032.99;;;10.79;50.88
55044;BME280;54902;50.420;18.854;2023-04-29T02:44:54;101038.46;;;10.79;50.86
55044;BME280;54902;50.420;18.854;2023-04-29T02:45:25;101039.33;;;10.80;50.86
55044;BME280;54902;50.420;18.854;2023-04-29T02:45:56;101044.78;;;10.80;50.85
55044;BME280;54902;50.420;18.854;2023-04-29T02:46:27;101037.57;;;10.79;50.85
55044;BME280;54902;50.420;18.854;2023-04-29T02:46:58;101040.30;;;10.79;50.85
55044;BME280;54902;50.420;18.854;2023-04-29T02:47:29;101032.11;;;10.79;50.85
55044;BME280;54902;50.420;18.854;2023-04-29T02:48:00;101033.85;;;10.80;50.86
55044;BME280;54902;50.420;18.854;2023-04-29T02:48:31;101034.84;;;10.79;50.88
55044;BME280;54902;50.420;18.854;2023-04-29T02:49:02;101037.57;;;10.79;50.89
55044;BME280;54902;50.420;18.854;2023-04-29T02:49:33;101035.73;;;10.79;50.90
55044;BME280;54902;50.420;18.854;2023-04-29T02:50:05;101034.84;;;10.79;50.93
55044;BME280;54902;50.420;18.854;2023-04-29T02:50:36;101037.57;;;10.79;50.90
55044;BME280;54902;50.420;18.854;2023-04-29T02:51:07;101029.37;;;10.79;50.90
55044;BME280;54902;50.420;18.854;2023-04-29T02:51:39;101032.11;;;10.79;50.92
55044;BME280;54902;50.420;18.854;2023-04-29T02:52:11;101043.04;;;10.79;50.89
55044;BME280;54902;50.420;18.854;2023-04-29T02:52:43;101037.57;;;10.79;50.90
55044;BME280;54902;50.420;18.854;2023-04-29T02:53:15;101039.45;;;10.78;50.87
55044;BME280;54902;50.420;18.854;2023-04-29T02:53:46;101034.84;;;10.79;50.90
55044;BME280;54902;50.420;18.854;2023-04-29T02:54:17;101030.36;;;10.78;50.90
55044;BME280;54902;50.420;18.854;2023-04-29T02:54:48;101043.04;;;10.79;50.88
55044;BME280;54902;50.420;18.854;2023-04-29T02:55:19;101037.57;;;10.79;50.90
55044;BME280;54902;50.420;18.854;2023-04-29T02:55:50;101037.57;;;10.79;50.89
55044;BME280;54902;50.420;18.854;2023-04-29T02:56:21;101040.30;;;10.79;50.92
55044;BME280;54902;50.420;18.854;2023-04-29T02:56:52;101034.84;;;10.79;50.93
55044;BME280;54902;50.420;18.854;2023-04-29T02:57:23;101032.11;;;10.79;50.92
55044;BME280;54902;50.420;18.854;2023-04-29T02:57:54;101042.17;;;10.78;50.91
55044;BME280;54902;50.420;18.854;2023-04-29T02:58:25;101038.55;;;10.78;50.95
55044;BME280;54902;50.420;18.854;2023-04-29T02:58:56;101035.82;;;10.78;50.94